Time;durP1;ratioP1;P1;durP2;ratioP2;P2;SDS_P1;SDS_P2;PMS_P1;PMS_P2;Temp;Humidity;BMP_temperature;BMP_pressure;BME280_temperature;BME280_humidity;BME280_pressure;Samples;Min_cycle;Max_cycle;Signal;HPM_P1;HPM_P2
2022/01/17 00:00:08;;;;;;;;;;;26.90;75.40;;;;;;5048622;28;19962;-68
2022/01/17 00:02:36;;;;;;;;;;;27.00;75.80;;;;;;5039288;28;19977;-68
2022/01/17 00:05:03;;;;;;;;;;;27.10;75.60;;;;;;5049158;28;20336;-68
2022/01/17 00:07:30;;;;;;;;;;;27.30;75.60;;;;;;5049389;28;20050;-67
2022/01/17 00:10:00;;;;;;;;;;;27.30;74.80;;;;;;5050508;28;19956;-67
2022/01/17 00:12:27;;;;;;;;;;;27.30;75.00;;;;;;5046386;28;19904;-68
2022/01/17 00:14:56;;;;;;;;;;;27.30;75.80;;;;;;5045296;28;20042;-68
2022/01/17 00:17:30;;;;;;;;;;;27.40;75.90;;;;;;5052653;28;19916;-67
2022/01/17 00:20:06;;;;;;;;;;;27.40;75.90;;;;;;5052951;28;19905;-68
2022/01/17 00:22:33;;;;;;;;;;;27.50;74.70;;;;;;5051730;28;20066;-67
2022/01/17 00:24:59;;;;;;;;;;;27.50;75.10;;;;;;5051806;28;20012;-67
2022/01/17 00:27:26;;;;;;;;;;;27.60;74.70;;;;;;5046312;28;19905;-67
2022/01/17 00:29:53;;;;;;;;;;;27.60;74.00;;;;;;5040627;28;20298;-68
2022/01/17 00:32:19;;;;;;;;;;;27.70;74.30;;;;;;5050716;28;20344;-67
2022/01/17 00:34:46;;;;;;;;;;;27.70;74.50;;;;;;5053353;28;19909;-68
2022/01/17 00:37:12;;;;;;;;;;;27.80;75.10;;;;;;5051436;28;20294;-67
2022/01/17 00:39:39;;;;;;;;;;;27.80;75.20;;;;;;5048269;28;19912;-67
2022/01/17 00:42:06;;;;;;;;;;;27.70;75.20;;;;;;5046548;28;19921;-67
2022/01/17 01:29:10;;;;;;;;;;;27.90;74.90;;;;;;5090639;28;19946;-67
2022/01/17 01:31:50;;;;;;;;;;;27.90;75.60;;;;;;5088363;28;19956;-67
2022/01/17 01:34:19;;;;;;;;;;;27.90;74.70;;;;;;5093886;22;19927;-74
2022/01/17 01:36:48;;;;;;;;;;;27.90;74.90;;;;;;5086546;28;20298;-74
2022/01/17 01:39:22;;;;;;;;;;;27.90;74.80;;;;;;5092347;28;19904;-74
2022/01/17 01:41:49;;;;;;;;;;;27.90;74.70;;;;;;5074894;28;20006;-74
2022/01/17 01:44:16;;;;;;;;;;;28.00;74.80;;;;;;5064659;28;19947;-74
2022/01/17 01:46:43;;;;;;;;;;;28.00;75.10;;;;;;5091892;28;19904;-74
2022/01/17 01:49:10;;;;;;;;;;;28.10;75.90;;;;;;5073314;28;20237;-74
2022/01/17 01:51:36;;;;;;;;;;;28.10;74.80;;;;;;5086967;28;19911;-75
2022/01/17 01:54:03;;;;;;;;;;;28.10;74.70;;;;;;5091884;28;20289;-75
2022/01/17 01:56:30;;;;;;;;;;;28.10;75.10;;;;;;5091337;28;20358;-74
2022/01/17 01:58:57;;;;;;;;;;;28.10;74.60;;;;;;5091866;28;20240;-75
2022/01/17 02:01:23;;;;;;;;;;;28.20;74.20;;;;;;5091533;28;20006;-74
2022/01/17 02:03:50;;;;;;;;;;;28.10;73.90;;;;;;5077278;28;19912;-74
2022/01/17 02:06:17;;;;;;;;;;;28.10;73.10;;;;;;5091354;28;19961;-74
2022/01/17 02:08:43;;;;;;;;;;;28.00;73.50;;;;;;5090818;28;19904;-74
2022/01/17 02:11:11;;;;;;;;;;;28.00;73.60;;;;;;5087206;28;20327;-73
2022/01/17 02:13:40;;;;;;;;;;;28.00;74.60;;;;;;5087250;28;19904;-75
2022/01/17 02:16:10;;;;;;;;;;;27.90;74.70;;;;;;5075354;28;19909;-74
2022/01/17 02:18:37;;;;;;;;;;;27.80;74.70;;;;;;5080946;28;20289;-74
2022/01/17 02:23:48;;;;;;;;;;;27.70;75.30;;;;;;5089431;28;19915;-74
2022/01/17 02:26:14;;;;;;;;;;;27.60;74.80;;;;;;5072846;28;19951;-74
2022/01/17 02:28:47;;;;;;;;;;;27.60;74.80;;;;;;5086545;28;19962;-75
2022/01/17 02:31:14;;;;;;;;;;;27.60;75.40;;;;;;5072926;28;20331;-74
2022/01/17 02:33:40;;;;;;;;;;;27.70;76.10;;;;;;5090671;28;19916;-74
2022/01/17 02:36:07;;;;;;;;;;;27.80;76.50;;;;;;5091107;28;19939;-74
2022/01/17 02:38:33;;;;;;;;;;;27.80;75.10;;;;;;5090383;28;19911;-74
2022/01/17 02:41:00;;;;;;;;;;;27.70;75.30;;;;;;5090479;28;19966;-73
2022/01/17 02:43:27;;;;;;;;;;;27.80;75.00;;;;;;5080229;28;20313;-73
2022/01/17 02:48:21;;;;;;;;;;;27.70;74.90;;;;;;5090582;28;20310;-73
2022/01/17 02:50:47;;;;;;;;;;;27.60;73.70;;;;;;5090940;28;19931;-74
2022/01/17 02:53:14;;;;;;;;;;;27.60;75.10;;;;;;5081676;28;20309;-74
2022/01/17 02:55:50;;;;;;;;;;;27.60;75.40;;;;;;5086660;28;19904;-73
2022/01/17 02:58:19;;;;;;;;;;;27.60;74.40;;;;;;5075216;28;19912;-73
2022/01/17 03:00:46;;;;;;;;;;;27.50;75.20;;;;;;5090432;28;19912;-73
2022/01/17 03:03:13;;;;;;;;;;;27.60;75.30;;;;;;5064191;28;19924;-73
2022/01/17 03:05:40;;;;;;;;;;;27.50;75.70;;;;;;5085553;28;19908;-72
2022/01/17 03:08:06;;;;;;;;;;;27.50;75.20;;;;;;5089972;28;20346;-73
2022/01/17 03:10:43;;;;;;;;;;;27.50;74.80;;;;;;5090793;28;19951;-73
2022/01/17 03:13:13;;;;;;;;;;;27.50;75.90;;;;;;5082150;28;19911;-73
2022/01/17 03:15:40;;;;;;;;;;;27.50;75.60;;;;;;5067834;28;19907;-72
2022/01/17 03:18:06;;;;;;;;;;;27.50;75.30;;;;;;5090750;28;19914;-73
2022/01/17 03:20:39;;;;;;;;;;;27.50;75.40;;;;;;5067742;28;20397;-73
2022/01/17 03:23:06;;;;;;;;;;;27.50;75.70;;;;;;5072684;28;19916;-73
2022/01/17 03:25:33;;;;;;;;;;;27.50;75.50;;;;;;5071241;28;19912;-73
2022/01/17 03:27:59;;;;;;;;;;;27.50;76.00;;;;;;5088267;28;19905;-73
2022/01/17 03:30:27;;;;;;;;;;;27.50;75.90;;;;;;5072295;28;19908;-72
2022/01/17 03:32:53;;;;;;;;;;;27.50;75.90;;;;;;5090352;28;19987;-73
2022/01/17 03:35:20;;;;;;;;;;;27.50;76.70;;;;;;5090259;28;19920;-73
2022/01/17 03:37:46;;;;;;;;;;;27.50;76.60;;;;;;5091528;28;19904;-73
2022/01/17 03:40:13;;;;;;;;;;;27.50;76.40;;;;;;5094672;28;19998;-73
2022/01/17 03:42:40;;;;;;;;;;;27.40;76.20;;;;;;5089379;28;20298;-73
2022/01/17 03:45:10;;;;;;;;;;;27.40;77.10;;;;;;5084897;28;19951;-74
2022/01/17 03:47:37;;;;;;;;;;;27.40;76.60;;;;;;5094424;28;19973;-73
2022/01/17 03:50:04;;;;;;;;;;;27.30;75.70;;;;;;5075845;28;19905;-73
2022/01/17 03:52:30;;;;;;;;;;;27.30;75.90;;;;;;5088485;28;19904;-73
2022/01/17 03:54:58;;;;;;;;;;;27.30;77.60;;;;;;5082999;28;19912;-73
2022/01/17 03:57:25;;;;;;;;;;;27.30;77.20;;;;;;5093641;28;19904;-73
2022/01/17 03:59:51;;;;;;;;;;;27.30;77.10;;;;;;5093987;28;19995;-74
2022/01/17 04:02:18;;;;;;;;;;;27.40;77.50;;;;;;5095616;28;19916;-73
2022/01/17 04:04:44;;;;;;;;;;;27.40;77.40;;;;;;5081193;28;19904;-72
2022/01/17 04:07:11;;;;;;;;;;;27.40;76.90;;;;;;5076576;28;19907;-73
2022/01/17 04:09:37;;;;;;;;;;;27.30;77.30;;;;;;5093334;28;19904;-72
2022/01/17 04:12:04;;;;;;;;;;;27.30;77.10;;;;;;5093705;28;20006;-72
2022/01/17 04:14:34;;;;;;;;;;;27.30;77.10;;;;;;5077939;28;19914;-73
2022/01/17 04:17:01;;;;;;;;;;;27.20;77.10;;;;;;5083610;28;19916;-73
2022/01/17 04:19:28;;;;;;;;;;;27.20;77.20;;;;;;5093759;28;20369;-73
2022/01/17 04:21:54;;;;;;;;;;;27.20;77.00;;;;;;5092668;28;19924;-72
2022/01/17 04:24:21;;;;;;;;;;;27.20;76.80;;;;;;5094058;28;20019;-69
2022/01/17 04:26:48;;;;;;;;;;;27.20;76.60;;;;;;5093582;28;19908;-70
2022/01/17 04:29:14;;;;;;;;;;;27.10;76.50;;;;;;5099249;28;19952;-70
2022/01/17 04:31:41;;;;;;;;;;;27.20;77.30;;;;;;5097456;28;19910;-71
2022/01/17 04:34:07;;;;;;;;;;;27.20;76.80;;;;;;5090255;28;19916;-69
2022/01/17 04:36:34;;;;;;;;;;;27.10;77.00;;;;;;5075281;28;19911;-70
2022/01/17 04:39:00;;;;;;;;;;;27.10;76.80;;;;;;5103877;28;20308;-68
2022/01/17 04:41:36;;;;;;;;;;;27.10;77.30;;;;;;5092930;28;19912;-69
2022/01/17 04:46:49;;;;;;;;;;;27.10;77.30;;;;;;5060706;28;20207;-69
2022/01/17 04:49:16;;;;;;;;;;;27.00;76.80;;;;;;5086962;28;20309;-69
2022/01/17 04:51:42;;;;;;;;;;;27.10;77.90;;;;;;5074330;28;19904;-70
2022/01/17 04:54:39;;;;;;;;;;;27.10;77.70;;;;;;5092634;28;19912;-71
2022/01/17 04:56:55;;;;;;;;;;;27.10;77.40;;;;;;5092074;28;19904;-71
2022/01/17 04:59:22;;;;;;;;;;;27.10;76.60;;;;;;5092697;28;19908;-71
2022/01/17 05:01:48;;;;;;;;;;;27.00;75.80;;;;;;5092901;28;20292;-71
2022/01/17 05:04:15;;;;;;;;;;;27.00;77.20;;;;;;5097064;28;20060;-70
2022/01/17 05:06:41;;;;;;;;;;;27.00;76.50;;;;;;5105093;28;19904;-71
2022/01/17 05:09:08;;;;;;;;;;;27.00;76.50;;;;;;5094144;28;19907;-71
2022/01/17 05:11:34;;;;;;;;;;;27.00;76.50;;;;;;5097148;28;19908;-71
2022/01/17 05:14:01;;;;;;;;;;;27.00;77.00;;;;;;5078009;28;19912;-71
2022/01/17 05:16:36;;;;;;;;;;;27.10;76.50;;;;;;5080168;28;20223;-69
2022/01/17 05:21:47;;;;;;;;;;;27.10;76.60;;;;;;5092243;28;20004;-71
2022/01/17 05:24:13;;;;;;;;;;;27.10;76.50;;;;;;5071112;28;20289;-71
2022/01/17 05:26:41;;;;;;;;;;;27.00;77.40;;;;;;5074191;28;20358;-71
2022/01/17 05:29:08;;;;;;;;;;;27.00;77.80;;;;;;5092078;28;19954;-71
2022/01/17 05:31:34;;;;;;;;;;;27.00;77.50;;;;;;5092388;28;19911;-71
2022/01/17 05:34:01;;;;;;;;;;;27.00;77.40;;;;;;5073515;28;19939;-70
2022/01/17 05:36:27;;;;;;;;;;;27.00;77.60;;;;;;5092091;28;20299;-70
2022/01/17 05:38:54;;;;;;;;;;;27.00;78.10;;;;;;5092493;28;19916;-71
2022/01/17 05:41:20;;;;;;;;;;;26.90;78.10;;;;;;5091478;28;19904;-70
2022/01/17 05:43:47;;;;;;;;;;;26.90;78.20;;;;;;5075078;28;19913;-70
2022/01/17 05:46:13;;;;;;;;;;;26.90;77.20;;;;;;5092007;28;19908;-70
2022/01/17 05:48:40;;;;;;;;;;;26.90;77.30;;;;;;5092233;28;19961;-70
2022/01/17 05:51:06;;;;;;;;;;;26.90;77.60;;;;;;5091868;28;19904;-71
2022/01/17 05:53:33;;;;;;;;;;;26.80;77.80;;;;;;5091572;28;20314;-71
2022/01/17 05:56:00;;;;;;;;;;;26.90;77.90;;;;;;5073642;28;20015;-71
2022/01/17 05:58:26;;;;;;;;;;;26.80;77.60;;;;;;5091473;28;19904;-71
2022/01/17 06:00:53;;;;;;;;;;;26.80;78.10;;;;;;5100070;28;19904;-71
2022/01/17 06:03:19;;;;;;;;;;;26.80;77.30;;;;;;5079314;28;19923;-70
2022/01/17 06:05:46;;;;;;;;;;;26.80;77.80;;;;;;5088268;28;19908;-70
2022/01/17 06:08:13;;;;;;;;;;;26.80;78.30;;;;;;5091935;28;19940;-71
2022/01/17 06:10:39;;;;;;;;;;;26.70;78.20;;;;;;5084908;28;19950;-71
2022/01/17 06:13:06;;;;;;;;;;;26.70;78.40;;;;;;5083836;28;19915;-71
2022/01/17 06:15:32;;;;;;;;;;;26.70;78.60;;;;;;5085419;28;20288;-70
2022/01/17 06:17:59;;;;;;;;;;;26.70;78.60;;;;;;5091716;28;19908;-71
2022/01/17 06:20:26;;;;;;;;;;;26.80;78.60;;;;;;5089632;28;19924;-71
2022/01/17 06:22:52;;;;;;;;;;;26.80;78.90;;;;;;5084407;28;19916;-71
2022/01/17 06:25:19;;;;;;;;;;;26.80;78.80;;;;;;5083456;28;20069;-72
2022/01/17 06:27:46;;;;;;;;;;;26.80;78.90;;;;;;5092802;28;19915;-72
2022/01/17 06:30:15;;;;;;;;;;;26.80;78.90;;;;;;5089316;28;19910;-71
2022/01/17 06:32:42;;;;;;;;;;;26.80;78.80;;;;;;5057095;28;20286;-71
2022/01/17 06:35:09;;;;;;;;;;;26.80;78.60;;;;;;5081750;28;20461;-70
2022/01/17 06:37:38;;;;;;;;;;;26.80;78.50;;;;;;5084865;28;19912;-69
2022/01/17 06:40:07;;;;;;;;;;;26.80;78.40;;;;;;5089364;28;20281;-70
2022/01/17 06:42:34;;;;;;;;;;;26.80;78.00;;;;;;5087564;28;19973;-70
2022/01/17 06:45:04;;;;;;;;;;;26.80;78.20;;;;;;5090255;28;20423;-70
2022/01/17 06:47:31;;;;;;;;;;;26.80;78.80;;;;;;5091998;28;20271;-70
2022/01/17 06:49:57;;;;;;;;;;;26.80;78.60;;;;;;5087811;28;19908;-70
2022/01/17 06:52:24;;;;;;;;;;;26.80;78.80;;;;;;5087001;28;20453;-70
2022/01/17 06:54:52;;;;;;;;;;;26.80;78.70;;;;;;5095366;28;20267;-70
2022/01/17 06:57:19;;;;;;;;;;;26.80;78.70;;;;;;5078454;28;19912;-69
2022/01/17 06:59:45;;;;;;;;;;;26.80;78.90;;;;;;5072934;28;19915;-70
2022/01/17 07:02:12;;;;;;;;;;;26.80;78.80;;;;;;5090135;28;19919;-70
2022/01/17 07:04:38;;;;;;;;;;;26.80;79.40;;;;;;5076593;28;20409;-70
2022/01/17 07:07:05;;;;;;;;;;;26.80;79.30;;;;;;5090550;28;19908;-70
2022/01/17 07:09:32;;;;;;;;;;;26.80;79.30;;;;;;5086153;28;19915;-70
2022/01/17 07:11:59;;;;;;;;;;;26.80;78.80;;;;;;5087203;28;20269;-70
2022/01/17 07:14:26;;;;;;;;;;;26.80;79.30;;;;;;5061789;28;19943;-70
2022/01/17 07:16:52;;;;;;;;;;;26.80;79.10;;;;;;5091564;28;19954;-70
2022/01/17 07:19:19;;;;;;;;;;;26.80;79.30;;;;;;5075499;28;20014;-70
2022/01/17 07:21:45;;;;;;;;;;;26.80;79.00;;;;;;5090016;28;19916;-70
2022/01/17 07:24:12;;;;;;;;;;;26.70;79.00;;;;;;5080245;28;19923;-71
2022/01/17 07:26:38;;;;;;;;;;;26.80;79.00;;;;;;5097653;28;20333;-70
2022/01/17 07:29:08;;;;;;;;;;;26.70;78.90;;;;;;5089818;28;20274;-70
2022/01/17 07:31:36;;;;;;;;;;;26.70;79.30;;;;;;5081393;28;19913;-70
2022/01/17 07:34:02;;;;;;;;;;;26.70;79.20;;;;;;5074323;28;20363;-72
2022/01/17 07:36:29;;;;;;;;;;;26.70;79.10;;;;;;5090380;28;20259;-72
2022/01/17 07:38:56;;;;;;;;;;;26.70;79.10;;;;;;5089891;28;19904;-71
2022/01/17 07:41:23;;;;;;;;;;;26.70;79.30;;;;;;5073932;28;20291;-70
2022/01/17 07:43:51;;;;;;;;;;;26.60;79.00;;;;;;5078900;28;19912;-68
2022/01/17 07:46:29;;;;;;;;;;;26.70;79.00;;;;;;5090095;28;19914;-70
2022/01/17 07:49:03;;;;;;;;;;;26.60;78.80;;;;;;5090263;28;19995;-70
2022/01/17 07:51:29;;;;;;;;;;;26.60;78.80;;;;;;5080827;28;19999;-70
2022/01/17 07:53:56;;;;;;;;;;;26.60;78.60;;;;;;5089387;28;20270;-70
2022/01/17 07:56:23;;;;;;;;;;;26.60;78.60;;;;;;5071891;28;19904;-71
2022/01/17 07:58:50;;;;;;;;;;;26.60;78.70;;;;;;5089913;28;19919;-69
2022/01/17 08:01:16;;;;;;;;;;;26.60;78.60;;;;;;5083362;28;19909;-69
2022/01/17 08:03:43;;;;;;;;;;;26.60;78.60;;;;;;5075563;28;19905;-69
2022/01/17 08:06:10;;;;;;;;;;;26.50;78.40;;;;;;5101398;28;19908;-68
2022/01/17 08:08:36;;;;;;;;;;;26.50;78.40;;;;;;5075891;28;20246;-68
2022/01/17 08:11:03;;;;;;;;;;;26.50;78.00;;;;;;5095692;28;20285;-69
2022/01/17 08:13:29;;;;;;;;;;;26.50;78.30;;;;;;5078631;28;19905;-69
2022/01/17 08:15:56;;;;;;;;;;;26.50;78.50;;;;;;5087007;28;20475;-69
2022/01/17 08:18:22;;;;;;;;;;;26.50;78.20;;;;;;5089366;28;19918;-69
2022/01/17 08:20:49;;;;;;;;;;;26.50;78.10;;;;;;5089155;28;19946;-68
2022/01/17 08:23:15;;;;;;;;;;;26.50;78.00;;;;;;5097999;28;19920;-70
2022/01/17 08:25:42;;;;;;;;;;;26.50;78.20;;;;;;5075522;28;20369;-68
2022/01/17 08:28:08;;;;;;;;;;;26.50;78.40;;;;;;5075776;28;19912;-70
2022/01/17 08:30:35;;;;;;;;;;;26.50;78.40;;;;;;5074864;28;19912;-68
2022/01/17 10:13:41;;;;;;;;;;;26.10;81.40;;;;;;5095201;28;19926;-77
2022/01/17 10:16:19;;;;;;;;;;;26.00;81.50;;;;;;5082327;27;19913;-78
2022/01/17 10:18:53;;;;;;;;;;;26.10;81.50;;;;;;5132125;27;19911;-77
2022/01/17 10:21:30;;;;;;;;;;;26.10;81.50;;;;;;5077699;28;19939;-78
2022/01/17 10:34:55;;;;;;;;;;;26.10;81.60;;;;;;5091028;28;20431;-73
2022/01/17 10:37:23;;;;;;;;;;;26.00;81.50;;;;;;5099912;28;19907;-73
2022/01/17 10:40:05;;;;;;;;;;;26.00;81.60;;;;;;5100794;27;19986;-74
2022/01/17 10:42:34;;;;;;;;;;;26.00;81.60;;;;;;5111013;28;20341;-74
2022/01/17 10:45:08;;;;;;;;;;;26.00;81.50;;;;;;5093753;28;19958;-75
2022/01/17 10:47:37;;;;;;;;;;;26.00;81.70;;;;;;5109440;27;19926;-73
2022/01/17 10:50:05;;;;;;;;;;;26.00;81.80;;;;;;5104523;27;19912;-76
2022/01/17 10:52:39;;;;;;;;;;;26.00;81.80;;;;;;5087825;27;20330;-75
2022/01/17 10:55:14;;;;;;;;;;;25.90;81.80;;;;;;5092922;28;20319;-75
2022/01/17 10:57:42;;;;;;;;;;;25.90;81.70;;;;;;5110387;28;19915;-75
2022/01/17 11:00:13;;;;;;;;;;;25.90;81.70;;;;;;5088533;28;19912;-75
2022/01/17 11:02:40;;;;;;;;;;;25.90;81.70;;;;;;5108015;28;19916;-73
2022/01/17 11:05:07;;;;;;;;;;;25.90;81.70;;;;;;5072662;28;19908;-74
2022/01/17 11:07:43;;;;;;;;;;;25.90;81.80;;;;;;5072615;28;19957;-76
2022/01/17 11:10:16;;;;;;;;;;;25.90;81.80;;;;;;5090683;28;19908;-75
2022/01/17 11:12:43;;;;;;;;;;;25.90;81.70;;;;;;5102538;28;19922;-75
2022/01/17 11:15:13;;;;;;;;;;;25.90;81.80;;;;;;5110698;28;19918;-75
2022/01/17 11:17:47;;;;;;;;;;;25.90;81.80;;;;;;5093601;28;20309;-76
2022/01/17 11:20:13;;;;;;;;;;;25.80;81.80;;;;;;5089510;28;20318;-75
2022/01/17 11:22:40;;;;;;;;;;;25.90;81.90;;;;;;5089192;28;19912;-74
2022/01/17 11:25:08;;;;;;;;;;;25.90;81.90;;;;;;5090085;28;19912;-75
2022/01/17 11:27:35;;;;;;;;;;;25.90;81.90;;;;;;5073252;28;20628;-75
2022/01/17 11:30:01;;;;;;;;;;;25.90;81.90;;;;;;5091074;28;19912;-74
2022/01/17 11:32:28;;;;;;;;;;;25.80;82.00;;;;;;5073009;28;20329;-75
2022/01/17 11:34:57;;;;;;;;;;;25.80;82.00;;;;;;5090403;28;19904;-75
2022/01/17 11:37:24;;;;;;;;;;;25.90;81.90;;;;;;5092119;28;20262;-75
2022/01/17 11:39:52;;;;;;;;;;;25.80;82.10;;;;;;5090069;28;19944;-75
2022/01/17 11:42:48;;;;;;;;;;;25.80;82.10;;;;;;5088872;28;19919;-75
2022/01/17 11:45:23;;;;;;;;;;;25.80;82.20;;;;;;5073129;28;19904;-75
2022/01/17 11:47:57;;;;;;;;;;;25.80;82.30;;;;;;5090965;28;19910;-75
2022/01/17 11:50:30;;;;;;;;;;;25.80;82.20;;;;;;5090786;28;19916;-75
2022/01/17 11:52:58;;;;;;;;;;;25.80;82.20;;;;;;5090292;28;20349;-75
2022/01/17 11:55:42;;;;;;;;;;;25.80;82.30;;;;;;5091164;28;19919;-75
2022/01/17 11:58:31;;;;;;;;;;;25.80;82.40;;;;;;5090734;28;20265;-75
2022/01/17 12:00:57;;;;;;;;;;;25.80;82.20;;;;;;5094229;28;19904;-75
2022/01/17 12:03:25;;;;;;;;;;;25.80;82.10;;;;;;5094814;28;19955;-75
2022/01/17 12:05:52;;;;;;;;;;;25.80;82.10;;;;;;5113358;27;19937;-75
2022/01/17 12:08:26;;;;;;;;;;;25.80;82.10;;;;;;5135437;27;20430;-75
2022/01/17 12:10:54;;;;;;;;;;;25.80;82.20;;;;;;5135283;27;19957;-76
2022/01/17 12:13:23;;;;;;;;;;;25.80;82.30;;;;;;5134802;27;19915;-75
2022/01/17 12:15:56;;;;;;;;;;;25.80;82.10;;;;;;5116395;27;19994;-75
2022/01/17 12:18:29;;;;;;;;;;;25.80;82.10;;;;;;5133399;27;19953;-75
2022/01/17 12:20:55;;;;;;;;;;;25.80;82.10;;;;;;5134500;27;20314;-75
2022/01/17 12:23:23;;;;;;;;;;;25.80;82.10;;;;;;5134630;27;19912;-75
2022/01/17 12:25:49;;;;;;;;;;;25.80;82.10;;;;;;5116792;27;20292;-75
2022/01/17 12:28:19;;;;;;;;;;;25.80;82.10;;;;;;5116222;27;20283;-75
2022/01/17 12:30:54;;;;;;;;;;;25.80;82.20;;;;;;5111955;28;20074;-75
2022/01/17 12:33:40;;;;;;;;;;;25.80;82.20;;;;;;5076115;28;19958;-75
2022/01/17 12:36:32;;;;;;;;;;;25.80;82.40;;;;;;5094573;28;19960;-75
2022/01/17 12:39:09;;;;;;;;;;;25.80;82.60;;;;;;5114710;28;19912;-75
2022/01/17 12:41:36;;;;;;;;;;;25.80;82.70;;;;;;5113911;28;19907;-75
2022/01/17 12:44:13;;;;;;;;;;;25.80;82.90;;;;;;5113941;27;20315;-75
2022/01/17 12:46:41;;;;;;;;;;;25.80;82.90;;;;;;5133724;27;20353;-75
2022/01/17 12:49:07;;;;;;;;;;;25.80;82.90;;;;;;5116583;27;19903;-75
2022/01/17 12:51:34;;;;;;;;;;;25.80;82.90;;;;;;5132792;27;20322;-75
2022/01/17 12:54:02;;;;;;;;;;;25.80;83.00;;;;;;5113342;28;19907;-75
2022/01/17 12:56:29;;;;;;;;;;;25.80;83.00;;;;;;5113768;28;19903;-75
2022/01/17 12:58:58;;;;;;;;;;;25.70;83.10;;;;;;5119256;27;19907;-75
2022/01/17 13:01:25;;;;;;;;;;;25.80;83.10;;;;;;5134140;27;20230;-75
2022/01/17 13:03:51;;;;;;;;;;;25.80;83.00;;;;;;5116237;27;19914;-75
2022/01/17 13:06:18;;;;;;;;;;;25.70;83.10;;;;;;5134277;27;19918;-75
2022/01/17 13:08:46;;;;;;;;;;;25.80;83.20;;;;;;5134252;27;19911;-75
2022/01/17 13:11:17;;;;;;;;;;;25.80;83.20;;;;;;5124033;27;19907;-75
2022/01/17 13:13:52;;;;;;;;;;;25.70;83.20;;;;;;5085114;28;19916;-75
2022/01/17 13:16:20;;;;;;;;;;;25.70;83.20;;;;;;5093350;28;19904;-75
2022/01/17 13:18:47;;;;;;;;;;;25.70;83.30;;;;;;5106579;27;19936;-75
2022/01/17 13:21:14;;;;;;;;;;;25.70;83.40;;;;;;5133807;27;19994;-75
2022/01/17 13:23:49;;;;;;;;;;;25.70;83.40;;;;;;5131388;27;19962;-75
2022/01/17 13:26:16;;;;;;;;;;;25.80;83.40;;;;;;5126969;27;19934;-75
2022/01/17 13:28:49;;;;;;;;;;;25.70;83.50;;;;;;5133595;27;20023;-75
2022/01/17 13:31:23;;;;;;;;;;;25.70;83.50;;;;;;5128356;27;19915;-75
2022/01/17 13:33:49;;;;;;;;;;;25.70;83.60;;;;;;5111616;28;20386;-75
2022/01/17 13:36:26;;;;;;;;;;;25.70;83.60;;;;;;5112940;28;20380;-75
2022/01/17 13:39:18;;;;;;;;;;;25.70;83.70;;;;;;5104670;28;20568;-75
2022/01/17 13:41:50;;;;;;;;;;;25.70;83.70;;;;;;5107746;28;19916;-75
2022/01/17 13:44:23;;;;;;;;;;;25.70;83.70;;;;;;5112926;28;19903;-75
2022/01/17 13:47:09;;;;;;;;;;;25.70;83.70;;;;;;5112593;27;19990;-75
2022/01/17 13:49:39;;;;;;;;;;;25.70;83.80;;;;;;5108547;28;19951;-74
2022/01/17 13:52:06;;;;;;;;;;;25.70;83.80;;;;;;5109728;28;19908;-75
2022/01/17 13:54:33;;;;;;;;;;;25.60;83.70;;;;;;5094475;28;20003;-75
2022/01/17 13:57:00;;;;;;;;;;;25.70;83.80;;;;;;5094735;28;19903;-75
2022/01/17 13:59:27;;;;;;;;;;;25.70;83.90;;;;;;5094161;28;20014;-75
2022/01/17 14:01:55;;;;;;;;;;;25.70;83.70;;;;;;5112180;28;19912;-75
2022/01/17 14:04:25;;;;;;;;;;;25.60;83.80;;;;;;5096636;28;20350;-75
2022/01/17 14:06:51;;;;;;;;;;;25.60;83.80;;;;;;5112497;28;20592;-75
2022/01/17 14:09:31;;;;;;;;;;;25.60;83.90;;;;;;5112181;27;19946;-75
2022/01/17 14:11:57;;;;;;;;;;;25.70;83.90;;;;;;5095930;28;19958;-75
2022/01/17 14:14:25;;;;;;;;;;;25.60;84.00;;;;;;5099565;28;20385;-75
2022/01/17 14:16:52;;;;;;;;;;;25.70;84.00;;;;;;5111811;28;19907;-76
2022/01/17 14:19:19;;;;;;;;;;;25.70;84.10;;;;;;5111543;27;19907;-75
2022/01/17 14:21:49;;;;;;;;;;;25.60;84.10;;;;;;5118753;27;19923;-75
2022/01/17 14:24:15;;;;;;;;;;;25.70;84.20;;;;;;5132961;27;19907;-75
2022/01/17 14:26:49;;;;;;;;;;;25.60;84.30;;;;;;5119070;27;19919;-75
2022/01/17 14:29:15;;;;;;;;;;;25.60;84.40;;;;;;5112098;27;20290;-75
2022/01/17 14:31:43;;;;;;;;;;;25.60;84.30;;;;;;5093533;28;19907;-75
2022/01/17 14:34:11;;;;;;;;;;;25.60;84.30;;;;;;5111715;28;20296;-75
2022/01/17 14:36:41;;;;;;;;;;;25.70;84.50;;;;;;5114859;27;19923;-75
2022/01/17 14:39:09;;;;;;;;;;;25.70;84.50;;;;;;5109420;28;19907;-75
2022/01/17 14:41:37;;;;;;;;;;;25.60;84.50;;;;;;5120016;27;19995;-75
2022/01/17 14:44:12;;;;;;;;;;;25.60;84.60;;;;;;5106027;27;19919;-76
2022/01/17 14:46:45;;;;;;;;;;;25.60;84.70;;;;;;5073638;28;19903;-75
2022/01/17 14:49:18;;;;;;;;;;;25.60;84.70;;;;;;5104472;28;19983;-76
2022/01/17 14:51:45;;;;;;;;;;;25.60;84.70;;;;;;5092592;28;20034;-75
2022/01/17 14:54:15;;;;;;;;;;;25.50;84.80;;;;;;5111957;28;20380;-75
2022/01/17 14:59:41;;;;;;;;;;;25.50;85.00;;;;;;5111494;28;19911;-75
2022/01/17 15:04:52;;;;;;;;;;;25.50;85.30;;;;;;5111549;28;20011;-75
2022/01/17 15:07:19;;;;;;;;;;;25.50;85.30;;;;;;5111430;28;19904;-75
2022/01/17 15:09:48;;;;;;;;;;;25.40;85.30;;;;;;5111640;28;19915;-75
2022/01/17 15:12:17;;;;;;;;;;;25.50;85.40;;;;;;5094514;28;19996;-75
2022/01/17 15:14:44;;;;;;;;;;;25.50;85.50;;;;;;5098849;27;19907;-75
2022/01/17 15:17:12;;;;;;;;;;;25.50;85.60;;;;;;5121273;27;19915;-75
2022/01/17 15:19:39;;;;;;;;;;;25.50;85.60;;;;;;5131902;27;19903;-75
2022/01/17 15:22:06;;;;;;;;;;;25.50;85.60;;;;;;5090756;28;19912;-76
2022/01/17 15:24:32;;;;;;;;;;;25.40;85.80;;;;;;5093565;28;19942;-76
2022/01/17 15:26:59;;;;;;;;;;;25.40;85.70;;;;;;5110745;28;20510;-75
2022/01/17 15:29:27;;;;;;;;;;;25.50;85.80;;;;;;5108595;28;19912;-75
2022/01/17 15:31:54;;;;;;;;;;;25.40;85.80;;;;;;5111688;28;19987;-76
2022/01/17 15:34:21;;;;;;;;;;;25.40;85.80;;;;;;5117709;27;19954;-75
2022/01/17 15:36:48;;;;;;;;;;;25.40;85.90;;;;;;5133936;27;19907;-75
2022/01/17 15:39:14;;;;;;;;;;;25.40;86.00;;;;;;5107295;27;19961;-75
2022/01/17 15:41:41;;;;;;;;;;;25.40;86.00;;;;;;5106013;28;19912;-76
2022/01/17 15:44:08;;;;;;;;;;;25.40;86.10;;;;;;5115651;28;19916;-75
2022/01/17 15:46:34;;;;;;;;;;;25.30;86.20;;;;;;5097078;28;19908;-75
2022/01/17 15:49:01;;;;;;;;;;;25.40;86.20;;;;;;5122485;27;19907;-75
2022/01/17 15:51:27;;;;;;;;;;;25.40;86.20;;;;;;5115572;28;19908;-75
2022/01/17 20:01:13;;;;;;;;;;;23.70;89.30;;;;;;5082570;28;19978;-68
2022/01/17 20:03:39;;;;;;;;;;;23.70;89.10;;;;;;5099130;28;19919;-70
2022/01/17 20:06:06;;;;;;;;;;;23.80;89.20;;;;;;5108677;28;19916;-70
2022/01/17 20:08:33;;;;;;;;;;;23.80;89.20;;;;;;5098098;28;19907;-68
2022/01/17 20:10:59;;;;;;;;;;;23.80;88.70;;;;;;5109650;28;19990;-68
2022/01/17 20:13:26;;;;;;;;;;;23.90;88.50;;;;;;5120503;28;19940;-69
2022/01/17 20:15:52;;;;;;;;;;;23.80;88.50;;;;;;5131416;27;19949;-68
2022/01/17 20:18:19;;;;;;;;;;;23.80;88.70;;;;;;5097700;28;20358;-68
2022/01/17 20:20:46;;;;;;;;;;;23.80;88.40;;;;;;5113267;27;19920;-68
2022/01/17 20:23:13;;;;;;;;;;;23.80;88.40;;;;;;5109478;27;20378;-69
2022/01/17 20:25:40;;;;;;;;;;;23.80;88.40;;;;;;5114015;28;20010;-69
2022/01/17 20:28:09;;;;;;;;;;;23.90;88.20;;;;;;5100424;28;19932;-69
2022/01/17 20:30:36;;;;;;;;;;;23.90;87.90;;;;;;5109330;28;20316;-69
2022/01/17 20:33:03;;;;;;;;;;;23.90;87.90;;;;;;5097201;28;19908;-70
2022/01/17 20:35:29;;;;;;;;;;;23.90;87.70;;;;;;5110485;27;19912;-69
2022/01/17 20:37:56;;;;;;;;;;;23.80;87.80;;;;;;5106919;27;19990;-69
2022/01/17 20:40:22;;;;;;;;;;;23.80;87.70;;;;;;5115883;27;19908;-69
2022/01/17 20:42:49;;;;;;;;;;;23.90;87.90;;;;;;5117024;27;19915;-69
2022/01/17 20:45:15;;;;;;;;;;;23.80;87.60;;;;;;5134536;27;19904;-70
2022/01/17 20:47:42;;;;;;;;;;;23.80;87.70;;;;;;5134456;27;19910;-69
2022/01/17 20:50:09;;;;;;;;;;;23.80;87.60;;;;;;5135390;27;19930;-70
2022/01/17 20:52:35;;;;;;;;;;;23.80;87.90;;;;;;5117956;27;20417;-70
2022/01/17 20:55:02;;;;;;;;;;;23.80;87.80;;;;;;5115226;27;20009;-70
2022/01/17 20:57:29;;;;;;;;;;;23.70;87.70;;;;;;5115042;27;19957;-69
2022/01/17 20:59:55;;;;;;;;;;;23.80;87.20;;;;;;5095641;28;19914;-69
